Time;durP1;ratioP1;P1;durP2;ratioP2;P2;SDS_P1;SDS_P2;PMS_P1;PMS_P2;Temp;Humidity;BMP_temperature;BMP_pressure;BME280_temperature;BME280_humidity;BME280_pressure;Samples;Min_cycle;Max_cycle;Signal;HPM_P1;HPM_P2
2023/10/04 00:01:45;;;;;;;9.32;3.22;;;;;;;13.44;96.62;100576.16;5023524;28;20053;-60
2023/10/04 00:04:16;;;;;;;9.35;2.67;;;;;;;13.42;95.65;100577.94;5012875;28;20475;-60
2023/10/04 00:06:47;;;;;;;6.60;2.33;;;;;;;13.41;95.54;100586.72;5022242;28;20041;-59
2023/10/04 00:09:18;;;;;;;4.30;2.45;;;;;;;13.48;95.48;100583.94;5011922;28;20060;-58
2023/10/04 00:11:50;;;;;;;6.53;2.40;;;;;;;13.63;96.04;100582.72;5022831;28;20126;-58
2023/10/04 00:14:22;;;;;;;11.23;2.40;;;;;;;13.69;96.36;100577.28;5013115;28;20064;-60
2023/10/04 00:16:52;;;;;;;5.75;2.42;;;;;;;13.71;94.98;100579.91;5023857;28;20977;-62
2023/10/04 00:19:23;;;;;;;8.77;3.07;;;;;;;13.76;94.52;100575.41;5013004;28;20159;-60
2023/10/04 00:21:53;;;;;;;8.60;2.70;;;;;;;13.81;93.34;100571.75;5024633;28;20363;-59
2023/10/04 00:24:24;;;;;;;6.43;2.27;;;;;;;13.93;91.32;100574.97;5016095;28;20311;-59
2023/10/04 00:26:54;;;;;;;8.00;2.30;;;;;;;14.17;90.67;100563.81;5026320;28;20349;-58
2023/10/04 00:29:26;;;;;;;8.70;2.80;;;;;;;14.17;89.83;100548.03;5016216;28;20337;-59
2023/10/04 00:31:57;;;;;;;5.93;2.40;;;;;;;14.28;88.32;100560.03;5026675;28;20600;-61
2023/10/04 00:34:28;;;;;;;6.53;2.53;;;;;;;14.30;87.17;100555.59;5016012;28;20383;-58
2023/10/04 00:36:59;;;;;;;5.57;2.33;;;;;;;14.34;87.14;100549.38;5025913;28;20295;-59
2023/10/04 00:39:30;;;;;;;6.40;2.20;;;;;;;14.48;87.43;100548.97;5016091;28;20276;-59
2023/10/04 00:42:00;;;;;;;7.23;2.30;;;;;;;14.59;86.88;100549.56;5026044;28;20283;-60
2023/10/04 00:44:35;;;;;;;6.87;2.03;;;;;;;14.72;84.36;100537.78;5016023;28;20287;-59
2023/10/04 00:47:07;;;;;;;5.83;2.20;;;;;;;14.84;83.08;100533.94;5026154;28;20378;-59
2023/10/04 00:49:45;;;;;;;6.73;2.10;;;;;;;14.96;83.75;100533.59;5003999;28;20280;-61
2023/10/04 00:52:16;;;;;;;4.10;2.00;;;;;;;14.83;83.32;100495.41;4996730;28;20295;-57
2023/10/04 00:54:46;;;;;;;3.93;1.60;;;;;;;15.06;80.99;100528.91;5007897;28;20103;-59
2023/10/04 00:57:17;;;;;;;5.57;2.13;;;;;;;15.07;80.96;100526.22;5006373;28;20766;-59
2023/10/04 00:59:49;;;;;;;9.17;2.00;;;;;;;15.07;80.56;100520.94;5024168;28;20402;-57
2023/10/04 01:02:20;;;;;;;2.90;1.60;;;;;;;15.04;79.92;100513.16;5015952;28;20287;-58
2023/10/04 01:04:50;;;;;;;7.80;2.07;;;;;;;15.09;81.00;100513.88;5026168;28;20677;-60
2023/10/04 01:07:21;;;;;;;5.03;1.80;;;;;;;15.08;80.53;100504.25;5016086;28;20374;-58
2023/10/04 01:09:51;;;;;;;9.70;2.40;;;;;;;15.16;80.70;100503.16;5025468;28;20408;-57
2023/10/04 01:12:24;;;;;;;5.50;2.00;;;;;;;15.22;81.88;100497.69;5005746;28;20284;-61
2023/10/04 01:15:07;;;;;;;5.00;1.70;;;;;;;15.24;81.65;100490.63;5006189;28;20319;-59
2023/10/04 01:17:37;;;;;;;6.43;1.63;;;;;;;15.28;82.25;100486.97;5015012;28;20894;-60
2023/10/04 01:20:14;;;;;;;6.80;1.83;;;;;;;15.33;82.30;100490.31;5021983;28;20280;-61
2023/10/04 01:22:46;;;;;;;4.20;1.90;;;;;;;15.36;82.19;100478.84;5025658;28;20280;-60
2023/10/04 01:25:18;;;;;;;9.27;1.50;;;;;;;15.41;82.51;100483.03;5015122;28;20295;-59
2023/10/04 01:27:51;;;;;;;4.83;1.50;;;;;;;15.40;81.74;100481.31;5025400;28;20394;-57
2023/10/04 01:30:21;;;;;;;12.03;2.00;;;;;;;15.46;82.06;100473.22;5015438;28;20294;-58
2023/10/04 01:32:52;;;;;;;8.10;1.60;;;;;;;15.51;82.56;100468.66;5024694;28;20780;-58
2023/10/04 01:35:24;;;;;;;5.43;1.90;;;;;;;15.60;83.11;100466.59;5015159;28;20329;-59
2023/10/04 01:37:57;;;;;;;6.30;1.87;;;;;;;15.62;82.15;100459.53;5025513;28;20371;-57
2023/10/04 01:40:31;;;;;;;2.90;1.73;;;;;;;15.50;80.75;100459.03;5015058;28;20254;-60
2023/10/04 01:43:04;;;;;;;6.97;1.50;;;;;;;15.56;81.53;100467.66;5024862;28;20607;-59
2023/10/04 01:45:36;;;;;;;6.17;1.70;;;;;;;15.53;80.54;100474.72;5014187;28;20766;-60
2023/10/04 01:48:08;;;;;;;8.13;2.00;;;;;;;15.51;80.94;100458.13;5025079;28;20773;-59
2023/10/04 01:50:38;;;;;;;5.43;1.50;;;;;;;15.60;81.32;100456.06;5014509;28;20320;-58
2023/10/04 01:53:11;;;;;;;5.07;1.80;;;;;;;15.69;82.52;100455.75;5014292;28;20287;-61
2023/10/04 01:55:41;;;;;;;4.00;1.47;;;;;;;15.72;80.95;100453.94;5024948;28;20298;-59
2023/10/04 01:58:13;;;;;;;5.03;1.60;;;;;;;15.74;80.71;100453.88;5014411;28;20650;-61
2023/10/04 02:00:44;;;;;;;6.70;1.87;;;;;;;15.74;81.38;100448.59;5024309;28;20279;-60
2023/10/04 02:03:14;;;;;;;7.27;1.97;;;;;;;15.72;80.95;100439.88;5014264;28;20287;-58
2023/10/04 02:05:46;;;;;;;7.60;1.83;;;;;;;15.80;80.94;100448.41;5024627;28;20286;-58
2023/10/04 02:08:18;;;;;;;9.80;2.83;;;;;;;15.75;80.83;100434.53;5013933;28;20831;-57
2023/10/04 02:10:50;;;;;;;4.40;2.07;;;;;;;15.75;80.70;100429.25;5024549;28;20425;-59
2023/10/04 02:13:21;;;;;;;4.70;2.00;;;;;;;15.76;80.15;100425.69;5014590;28;20301;-61
2023/10/04 02:15:52;;;;;;;9.77;2.63;;;;;;;15.78;80.57;100423.88;5024508;28;20295;-59
2023/10/04 02:18:23;;;;;;;4.77;1.90;;;;;;;15.83;80.25;100427.22;5014318;28;20303;-58
2023/10/04 02:20:53;;;;;;;7.20;2.17;;;;;;;15.86;79.41;100416.56;5024758;28;20621;-59
2023/10/04 02:23:25;;;;;;;6.40;2.03;;;;;;;15.96;79.38;100420.56;5014233;28;20272;-60
2023/10/04 02:25:56;;;;;;;11.10;2.43;;;;;;;16.03;78.74;100401.91;5024700;28;20769;-59
2023/10/04 02:28:27;;;;;;;8.70;1.87;;;;;;;16.07;79.07;100409.63;5014133;28;20861;-59
2023/10/04 02:30:57;;;;;;;6.23;2.23;;;;;;;16.10;79.15;100413.94;5024041;28;20287;-59
2023/10/04 02:33:32;;;;;;;4.67;1.87;;;;;;;16.08;78.01;100405.25;5013981;28;20281;-60
2023/10/04 02:36:06;;;;;;;9.37;2.30;;;;;;;15.94;78.13;100382.88;5023976;28;20287;-59
2023/10/04 02:38:39;;;;;;;4.37;2.13;;;;;;;16.04;77.78;100398.34;5013477;28;20287;-62
2023/10/04 02:41:10;;;;;;;4.33;2.10;;;;;;;16.09;78.30;100391.13;5013748;28;20921;-62
2023/10/04 02:43:40;;;;;;;12.33;2.40;;;;;;;16.09;78.25;100397.25;5023695;28;20622;-60
2023/10/04 02:46:11;;;;;;;5.70;1.67;;;;;;;16.20;77.36;100404.78;5013450;28;20283;-62
2023/10/04 02:48:42;;;;;;;9.33;2.80;;;;;;;16.23;78.11;100407.31;5023878;28;20269;-61
2023/10/04 02:51:13;;;;;;;11.00;2.90;;;;;;;16.28;78.08;100394.81;5013979;28;20283;-59
2023/10/04 02:53:45;;;;;;;6.00;1.70;;;;;;;16.34;77.49;100386.66;5024092;28;20329;-58
2023/10/04 02:56:15;;;;;;;8.03;2.00;;;;;;;16.37;76.31;100386.56;5013063;28;21258;-60
2023/10/04 02:58:47;;;;;;;9.83;2.27;;;;;;;16.41;76.14;100386.44;5024164;28;20367;-57
2023/10/04 03:01:22;;;;;;;10.27;2.23;;;;;;;16.52;75.22;100384.22;5013329;28;20279;-58
2023/10/04 03:03:53;;;;;;;5.50;2.33;;;;;;;16.58;76.38;100378.72;5024253;28;20284;-61
2023/10/04 03:06:24;;;;;;;9.47;1.93;;;;;;;16.08;76.45;100284.00;5013665;28;20622;-59
2023/10/04 03:08:57;;;;;;;8.07;2.53;;;;;;;16.63;75.09;100371.47;5022896;28;20769;-58
2023/10/04 03:11:28;;;;;;;5.17;1.30;;;;;;;16.58;72.55;100365.53;5013256;28;20281;-59
2023/10/04 03:13:59;;;;;;;5.10;1.70;;;;;;;16.60;72.41;100361.06;5023933;28;20291;-60
2023/10/04 03:16:30;;;;;;;5.83;1.97;;;;;;;16.59;72.43;100359.31;4995119;28;20296;-58
2023/10/04 03:19:01;;;;;;;11.93;2.20;;;;;;;16.59;72.94;100357.53;5005187;28;20298;-59
2023/10/04 03:21:33;;;;;;;13.50;2.30;;;;;;;16.58;73.32;100347.06;4995013;28;20338;-60
2023/10/04 03:24:10;;;;;;;11.53;2.27;;;;;;;16.59;73.71;100346.13;5005917;28;20284;-60
2023/10/04 03:26:40;;;;;;;9.73;2.90;;;;;;;16.63;72.48;100329.28;5013523;28;20290;-63
2023/10/04 03:29:12;;;;;;;17.40;5.63;;;;;;;16.64;73.21;100330.97;5013505;28;20370;-61
2023/10/04 03:31:42;;;;;;;20.77;6.07;;;;;;;16.65;73.29;100332.72;5004760;28;20363;-59
2023/10/04 03:34:13;;;;;;;9.37;3.23;;;;;;;16.65;72.57;100327.44;4995112;28;20288;-58
2023/10/04 03:36:46;;;;;;;13.10;2.57;;;;;;;16.60;71.37;100316.22;5004549;28;20272;-59
2023/10/04 03:39:18;;;;;;;10.97;2.13;;;;;;;16.56;72.30;100317.25;4995467;28;20311;-59
2023/10/04 03:41:49;;;;;;;10.90;2.47;;;;;;;16.51;72.74;100319.22;5004198;28;20296;-60
2023/10/04 03:44:20;;;;;;;12.53;2.60;;;;;;;16.47;74.45;100314.97;4993930;28;21048;-63
2023/10/04 03:46:51;;;;;;;11.87;2.10;;;;;;;16.46;75.74;100310.63;5005092;28;20338;-60
2023/10/04 03:49:21;;;;;;;9.47;2.73;;;;;;;16.33;74.78;100310.25;4994925;28;20393;-61
2023/10/04 03:51:53;;;;;;;6.47;2.20;;;;;;;16.31;76.66;100302.41;5004543;28;20739;-60
2023/10/04 03:54:27;;;;;;;4.93;2.27;;;;;;;16.24;77.08;100300.91;4995328;28;20383;-61
2023/10/04 03:56:58;;;;;;;6.40;2.30;;;;;;;16.23;77.76;100303.63;5015184;28;20294;-58
2023/10/04 03:59:28;;;;;;;6.87;2.27;;;;;;;16.12;77.53;100296.97;5015428;28;20949;-59
2023/10/04 04:01:59;;;;;;;6.00;2.17;;;;;;;15.99;78.05;100300.16;5027277;28;20287;-59
2023/10/04 04:04:29;;;;;;;12.47;2.40;;;;;;;15.84;77.99;100297.16;4997640;28;20284;-62
2023/10/04 04:07:00;;;;;;;5.97;1.90;;;;;;;15.76;78.73;100286.06;5007457;28;20291;-61
2023/10/04 04:09:33;;;;;;;8.17;2.10;;;;;;;15.68;79.14;100290.75;4978367;28;20288;-59
2023/10/04 04:12:03;;;;;;;9.90;2.50;;;;;;;15.64;79.81;100289.13;5005177;28;20284;-59
2023/10/04 04:14:34;;;;;;;9.10;2.00;;;;;;;15.63;79.91;100287.41;4997461;28;20742;-59
2023/10/04 04:17:05;;;;;;;4.73;2.00;;;;;;;15.61;79.78;100281.34;5007453;28;20276;-59
2023/10/04 04:19:36;;;;;;;8.03;2.07;;;;;;;15.66;80.21;100282.03;5016415;28;20299;-58
2023/10/04 04:22:08;;;;;;;9.83;2.30;;;;;;;15.72;80.61;100279.19;5026410;28;20306;-59
2023/10/04 04:24:41;;;;;;;6.10;2.20;;;;;;;15.81;81.61;100270.94;5016421;28;20365;-60
2023/10/04 04:27:11;;;;;;;11.27;2.43;;;;;;;15.94;81.18;100277.44;5016226;28;20301;-61
2023/10/04 04:29:43;;;;;;;8.60;2.20;;;;;;;16.07;80.84;100266.44;5026596;28;20294;-59
2023/10/04 04:32:15;;;;;;;6.53;2.03;;;;;;;16.15;81.05;100259.13;5015990;28;20825;-58
2023/10/04 04:34:46;;;;;;;8.43;2.43;;;;;;;16.23;80.55;100267.56;5026504;28;20688;-62
2023/10/04 04:37:17;;;;;;;7.67;1.77;;;;;;;16.31;78.79;100260.19;5016280;28;21243;-61
2023/10/04 04:39:49;;;;;;;5.60;1.57;;;;;;;16.45;77.56;100251.75;5025891;28;20287;-62
2023/10/04 04:42:20;;;;;;;6.67;2.23;;;;;;;16.54;78.08;100245.22;5015603;28;20295;-58
2023/10/04 04:44:56;;;;;;;4.83;2.00;;;;;;;16.63;78.23;100254.56;5025787;28;20385;-59
2023/10/04 04:47:27;;;;;;;5.13;2.23;;;;;;;16.63;77.94;100255.41;5015980;28;20267;-60
2023/10/04 04:49:59;;;;;;;10.07;2.13;;;;;;;16.62;78.24;100248.41;5006935;28;20315;-58
2023/10/04 04:52:31;;;;;;;11.63;2.17;;;;;;;16.57;77.58;100250.38;4996683;28;20368;-58
2023/10/04 04:55:04;;;;;;;10.40;2.20;;;;;;;16.52;77.91;100247.06;5006233;28;20351;-59
2023/10/04 04:57:34;;;;;;;4.73;1.53;;;;;;;16.41;77.94;100244.88;5008710;28;20276;-58
2023/10/04 05:00:30;;;;;;;5.67;1.80;;;;;;;16.31;77.89;100239.09;5016944;28;20299;-62
2023/10/04 05:02:59;;;;;;;7.97;2.17;;;;;;;16.24;78.87;100237.63;5021476;28;20293;-58
2023/10/04 05:05:31;;;;;;;6.37;1.60;;;;;;;16.18;79.26;100232.63;5015923;28;20276;-60
2023/10/04 05:08:02;;;;;;;5.40;1.73;;;;;;;16.01;78.19;100227.16;5017757;28;20284;-59
2023/10/04 05:10:38;;;;;;;6.40;1.63;;;;;;;15.93;77.72;100228.31;5001273;28;20299;-58
2023/10/04 05:13:09;;;;;;;6.13;1.67;;;;;;;15.79;78.36;100230.63;5017604;28;20300;-61
2023/10/04 05:15:42;;;;;;;5.33;1.37;;;;;;;15.67;80.09;100236.31;5025683;28;20417;-62
2023/10/04 05:18:15;;;;;;;5.90;1.10;;;;;;;15.52;81.49;100238.63;5015378;28;20377;-60
2023/10/04 05:20:49;;;;;;;7.43;1.80;;;;;;;14.97;83.22;100166.94;5025849;28;20282;-61
2023/10/04 05:23:21;;;;;;;4.27;1.20;;;;;;;15.28;84.24;100234.28;5015697;28;20811;-59
2023/10/04 05:25:54;;;;;;;5.37;1.87;;;;;;;15.21;84.79;100248.56;5026004;28;20291;-59
2023/10/04 05:28:25;;;;;;;6.63;1.80;;;;;;;15.09;86.24;100244.59;4996578;28;20483;-57
2023/10/04 05:30:57;;;;;;;4.17;1.57;;;;;;;14.96;87.20;100249.41;5007462;28;20300;-62
2023/10/04 05:33:27;;;;;;;6.63;1.60;;;;;;;14.83;88.17;100248.13;4996331;28;20285;-61
2023/10/04 05:36:01;;;;;;;9.70;2.00;;;;;;;14.70;89.51;100250.28;5006416;28;20294;-58
2023/10/04 05:38:32;;;;;;;5.90;1.80;;;;;;;14.60;90.82;100246.25;4996271;28;20761;-59
2023/10/04 05:41:05;;;;;;;7.17;1.87;;;;;;;14.53;91.85;100250.88;5006530;28;20386;-61
2023/10/04 05:43:35;;;;;;;6.37;1.90;;;;;;;14.49;92.81;100249.22;5015522;28;20942;-62
2023/10/04 05:46:06;;;;;;;7.73;1.63;;;;;;;14.47;93.47;100243.13;5008865;28;20786;-61
2023/10/04 05:48:37;;;;;;;13.97;1.90;;;;;;;14.44;93.91;100243.25;4995830;28;20272;-61
2023/10/04 05:51:08;;;;;;;9.37;1.70;;;;;;;14.40;95.03;100239.88;5004288;28;20639;-60
2023/10/04 05:53:39;;;;;;;10.50;1.93;;;;;;;14.40;95.69;100245.13;5006849;28;20349;-61
2023/10/04 05:56:11;;;;;;;6.53;1.33;;;;;;;14.39;96.18;100239.91;4996642;28;20350;-58
2023/10/04 05:58:42;;;;;;;5.63;2.07;;;;;;;14.40;96.78;100238.97;5025323;28;20379;-60
2023/10/04 06:01:17;;;;;;;5.63;1.40;;;;;;;14.34;97.34;100223.44;5014192;28;20398;-58
2023/10/04 06:03:48;;;;;;;3.60;1.70;;;;;;;14.42;98.22;100234.53;5023227;28;20280;-62
2023/10/04 06:06:18;;;;;;;6.70;1.30;;;;;;;14.43;98.40;100244.16;5014334;28;20280;-60
2023/10/04 06:08:51;;;;;;;5.53;2.10;;;;;;;14.41;98.82;100231.06;5010911;28;20765;-60
2023/10/04 06:11:29;;;;;;;6.37;1.60;;;;;;;14.44;99.14;100225.69;5006950;28;20330;-60
2023/10/04 06:14:00;;;;;;;6.37;1.80;;;;;;;14.44;99.58;100216.94;5024540;28;21048;-61
2023/10/04 06:16:31;;;;;;;5.03;1.60;;;;;;;14.38;100.00;100209.28;5015018;28;20283;-60
2023/10/04 06:19:01;;;;;;;3.70;1.60;;;;;;;14.33;100.00;100200.69;5024645;28;20319;-60
2023/10/04 06:21:49;;;;;;;8.60;2.10;;;;;;;14.38;100.00;100211.91;5000819;28;20311;-59
2023/10/04 06:24:20;;;;;;;6.07;1.87;;;;;;;14.37;100.00;100207.53;4995036;28;21002;-58
2023/10/04 06:26:52;;;;;;;5.07;1.80;;;;;;;14.36;100.00;100213.72;5004914;28;20288;-60
2023/10/04 06:29:23;;;;;;;8.43;2.03;;;;;;;14.31;100.00;100219.13;4995089;28;20371;-59
2023/10/04 06:31:53;;;;;;;7.23;1.80;;;;;;;14.26;100.00;100204.44;5005170;28;20288;-63
2023/10/04 06:34:24;;;;;;;6.63;1.90;;;;;;;14.21;100.00;100202.78;4995951;28;20686;-60
2023/10/04 06:36:54;;;;;;;7.67;1.93;;;;;;;14.17;100.00;100195.91;5004754;28;20292;-61
2023/10/04 06:39:25;;;;;;;3.97;1.93;;;;;;;14.11;100.00;100198.75;4995154;28;20299;-59
2023/10/04 06:41:58;;;;;;;7.10;2.00;;;;;;;14.09;100.00;100197.94;5004590;28;20295;-62
2023/10/04 06:44:29;;;;;;;8.37;2.20;;;;;;;14.07;100.00;100202.38;4995879;28;20289;-59
2023/10/04 06:47:00;;;;;;;3.97;2.00;;;;;;;14.03;100.00;100199.00;5004908;28;20371;-59
2023/10/04 06:49:34;;;;;;;9.10;2.83;;;;;;;13.99;100.00;100194.72;4994576;28;20440;-59
2023/10/04 06:52:05;;;;;;;14.27;5.57;;;;;;;14.00;100.00;100198.22;5004377;28;20300;-59
2023/10/04 06:54:35;;;;;;;18.57;6.63;;;;;;;13.95;100.00;100200.13;5013276;28;20352;-59
2023/10/04 06:57:08;;;;;;;11.17;5.10;;;;;;;13.95;100.00;100197.50;5022969;28;20295;-60
2023/10/04 06:59:38;;;;;;;12.90;5.80;;;;;;;13.95;100.00;100189.63;5023545;28;20283;-61
2023/10/04 07:02:09;;;;;;;11.73;5.23;;;;;;;13.98;100.00;100194.81;5015308;28;20288;-60
2023/10/04 07:04:39;;;;;;;9.80;6.10;;;;;;;14.00;100.00;100203.47;5023772;28;20279;-60
2023/10/04 07:07:10;;;;;;;21.67;8.23;;;;;;;13.99;100.00;100194.72;5012508;28;20306;-61
2023/10/04 07:09:41;;;;;;;19.87;6.67;;;;;;;14.00;100.00;100192.97;5023030;28;20288;-61
2023/10/04 07:12:13;;;;;;;15.53;7.17;;;;;;;13.98;100.00;100185.16;5012771;28;20294;-59
2023/10/04 07:14:45;;;;;;;9.07;4.17;;;;;;;13.94;100.00;100191.41;5023210;28;20279;-60
2023/10/04 07:17:19;;;;;;;10.30;3.70;;;;;;;13.92;100.00;100180.06;5012490;28;20298;-61
2023/10/04 07:19:49;;;;;;;7.13;3.20;;;;;;;13.89;100.00;100174.06;5024050;28;20959;-58
2023/10/04 07:22:21;;;;;;;8.63;3.50;;;;;;;13.87;100.00;100175.88;5012944;28;20291;-59
2023/10/04 07:24:52;;;;;;;6.90;2.83;;;;;;;13.85;100.00;100177.69;5023229;28;20291;-59
2023/10/04 07:27:27;;;;;;;7.27;3.27;;;;;;;13.81;100.00;100167.28;5012808;28;20378;-59
2023/10/04 07:29:57;;;;;;;11.77;4.37;;;;;;;13.79;100.00;100169.09;5024140;28;20848;-59
2023/10/04 07:32:29;;;;;;;13.63;4.77;;;;;;;13.77;100.00;100165.66;5017672;28;20686;-59
2023/10/04 07:35:00;;;;;;;12.87;5.10;;;;;;;13.73;100.00;100164.03;5027231;28;20296;-60
2023/10/04 07:37:31;;;;;;;13.73;4.23;;;;;;;13.69;100.00;100157.16;5017240;28;20738;-58
2023/10/04 07:40:09;;;;;;;11.20;4.17;;;;;;;13.68;100.00;100150.19;5027286;28;20370;-58
2023/10/04 07:42:42;;;;;;;10.43;4.80;;;;;;;13.67;100.00;100151.09;5016748;28;20311;-59
2023/10/04 07:45:14;;;;;;;13.77;4.50;;;;;;;13.67;100.00;100158.97;5016532;28;20291;-60
2023/10/04 07:47:47;;;;;;;10.37;6.30;;;;;;;13.64;100.00;100142.47;5027268;28;20318;-59
2023/10/04 07:50:22;;;;;;;13.73;6.20;;;;;;;13.61;100.00;100138.16;5016666;28;20280;-58
2023/10/04 07:52:54;;;;;;;10.13;4.97;;;;;;;13.57;100.00;100133.91;5027210;28;20395;-60
2023/10/04 07:55:26;;;;;;;9.23;4.37;;;;;;;13.48;100.00;100121.03;4998606;28;20300;-60
2023/10/04 07:58:03;;;;;;;5.27;3.50;;;;;;;13.45;100.00;100122.00;5024051;28;21243;-62
2023/10/04 08:00:41;;;;;;;8.13;4.00;;;;;;;13.38;100.00;100121.34;4996678;28;20280;-59
2023/10/04 08:03:18;;;;;;;12.63;4.50;;;;;;;13.33;100.00;100122.41;4997519;28;20307;-61
2023/10/04 08:05:50;;;;;;;13.67;4.67;;;;;;;13.26;100.00;100120.81;5007166;28;20049;-59
2023/10/04 08:08:21;;;;;;;14.07;4.40;;;;;;;13.20;100.00;100121.84;4997174;28;20747;-62
2023/10/04 08:10:51;;;;;;;11.87;5.03;;;;;;;13.14;100.00;100124.66;5007528;28;20966;-59
2023/10/04 08:13:24;;;;;;;9.87;5.20;;;;;;;13.09;100.00;100129.19;4996823;28;20288;-60
2023/10/04 08:15:54;;;;;;;17.57;7.30;;;;;;;13.04;100.00;100128.47;5006980;28;20685;-60
2023/10/04 08:18:25;;;;;;;17.17;5.43;;;;;;;12.98;100.00;100126.00;4997141;28;20291;-59
2023/10/04 08:20:56;;;;;;;13.00;5.93;;;;;;;12.93;100.00;100129.63;5006703;28;20619;-59
2023/10/04 08:23:27;;;;;;;12.40;5.13;;;;;;;12.89;100.00;100127.97;4997026;28;20782;-59
2023/10/04 08:25:58;;;;;;;7.57;4.03;;;;;;;12.85;100.00;100130.72;5012656;28;20487;-60
2023/10/04 08:28:30;;;;;;;14.30;4.00;;;;;;;12.80;100.00;100128.22;5022009;28;20323;-64
2023/10/04 08:31:01;;;;;;;8.00;3.50;;;;;;;12.74;100.00;100123.16;5032090;28;20378;-61
2023/10/04 08:33:32;;;;;;;8.10;3.00;;;;;;;12.67;100.00;100126.84;5021168;28;20057;-59
2023/10/04 08:36:10;;;;;;;6.60;3.20;;;;;;;12.65;100.00;100124.25;5031516;28;20389;-62
2023/10/04 08:38:42;;;;;;;8.23;3.10;;;;;;;12.64;100.00;100121.69;5014476;28;20395;-60
2023/10/04 08:41:13;;;;;;;11.00;3.70;;;;;;;12.64;100.00;100127.81;5020509;28;20124;-63
2023/10/04 08:43:45;;;;;;;9.40;3.65;;;;;;;12.22;100.00;100051.19;5012317;28;20128;-62
2023/10/04 08:46:19;;;;;;;13.93;3.70;;;;;;;12.40;100.00;100083.91;5009329;28;20053;-61
2023/10/04 08:48:53;;;;;;;11.65;3.13;;;;;;;12.63;100.00;100122.59;5025273;28;20080;-62
2023/10/04 08:51:30;;;;;;;12.38;3.30;;;;;;;12.66;100.00;100131.25;5010670;28;20341;-63
2023/10/04 08:54:15;;;;;;;9.05;3.95;;;;;;;12.57;100.00;100135.88;5020841;28;20076;-62
2023/10/04 08:56:50;;;;;;;11.93;3.00;;;;;;;12.49;100.00;100126.44;5011063;28;20045;-62
2023/10/04 08:59:24;;;;;;;8.65;3.08;;;;;;;12.41;100.00;100125.78;5011140;28;20053;-61
2023/10/04 09:01:56;;;;;;;8.77;3.50;;;;;;;12.24;100.00;100114.88;5020536;28;20045;-62
2023/10/04 09:04:29;;;;;;;13.82;3.15;;;;;;;12.25;100.00;100124.47;5019956;28;20059;-63
2023/10/04 09:07:04;;;;;;;9.15;3.13;;;;;;;12.25;100.00;100129.69;5030695;28;20098;-60
2023/10/04 09:09:38;;;;;;;9.30;3.72;;;;;;;12.22;100.00;100124.53;5020491;28;20060;-60
2023/10/04 09:12:19;;;;;;;8.40;3.13;;;;;;;12.22;100.00;100119.31;5020310;28;20478;-62
2023/10/04 09:14:53;;;;;;;10.85;3.60;;;;;;;12.23;100.00;100115.78;5030988;28;20056;-59
2023/10/04 09:17:56;;;;;;;14.57;3.72;;;;;;;12.22;100.00;100114.06;5019930;28;21351;-61
2023/10/04 09:20:33;;;;;;;11.35;4.63;;;;;;;12.20;100.00;100110.63;5018385;28;21305;-61
2023/10/04 09:23:17;;;;;;;15.15;7.82;;;;;;;12.29;100.00;100110.38;5030452;28;20056;-59
2023/10/04 09:25:55;;;;;;;15.73;8.05;;;;;;;12.27;100.00;100091.22;5030196;28;20561;-62
2023/10/04 09:28:39;;;;;;;17.10;7.00;;;;;;;11.55;100.00;99985.69;5020313;28;21202;-60
2023/10/04 09:31:22;;;;;;;12.18;5.85;;;;;;;12.13;100.00;100088.09;4993408;28;20050;-60
2023/10/04 09:33:57;;;;;;;13.50;4.88;;;;;;;12.05;100.00;100091.75;5030713;28;20063;-61
2023/10/04 09:36:35;;;;;;;12.23;6.82;;;;;;;11.97;100.00;100092.88;5019824;28;20052;-61
2023/10/04 09:39:16;;;;;;;6.63;3.60;;;;;;;11.87;100.00;100081.75;5030066;28;20053;-60
2023/10/04 09:41:56;;;;;;;6.72;3.38;;;;;;;11.79;100.00;100086.31;5029666;28;20052;-61
2023/10/04 09:44:35;;;;;;;7.60;4.07;;;;;;;11.73;100.00;100094.28;5018949;28;20107;-61
2023/10/04 09:47:09;;;;;;;7.43;2.90;;;;;;;11.70;100.00;100089.13;5030707;28;20391;-60
2023/10/04 09:49:54;;;;;;;9.38;3.40;;;;;;;11.57;100.00;100057.16;5021025;28;20057;-61
2023/10/04 09:52:26;;;;;;;8.45;3.60;;;;;;;11.74;100.00;100096.03;5018783;28;20474;-60
2023/10/04 09:55:00;;;;;;;10.32;3.05;;;;;;;11.74;100.00;100096.03;5029940;28;20072;-61
2023/10/04 09:57:31;;;;;;;10.23;3.25;;;;;;;11.79;100.00;100091.53;5018583;28;20651;-60
2023/10/04 10:00:05;;;;;;;6.07;3.35;;;;;;;11.79;100.00;100095.00;5029279;28;20099;-61
2023/10/04 10:02:38;;;;;;;5.85;2.33;;;;;;;11.39;100.00;100042.75;5011023;28;20060;-60
2023/10/04 10:05:11;;;;;;;8.88;2.90;;;;;;;11.80;100.00;100101.09;5021693;28;20063;-60
2023/10/04 10:07:43;;;;;;;10.77;3.97;;;;;;;11.75;100.00;100087.25;5030487;28;20052;-61
2023/10/04 10:10:16;;;;;;;9.95;4.22;;;;;;;11.83;100.00;100106.25;5019515;28;20063;-61
2023/10/04 10:12:49;;;;;;;9.05;5.13;;;;;;;11.88;100.00;100107.03;5029715;28;20114;-60
2023/10/04 10:15:21;;;;;;;10.00;4.47;;;;;;;11.89;100.00;100098.28;5019403;28;20071;-61
2023/10/04 10:17:54;;;;;;;13.43;4.85;;;;;;;11.93;100.00;100107.81;5023192;28;20444;-59
2023/10/04 10:20:27;;;;;;;15.05;4.95;;;;;;;11.94;100.00;100108.66;5000963;28;20068;-60
2023/10/04 10:23:19;;;;;;;14.95;5.28;;;;;;;11.95;100.00;100108.59;5020119;28;20624;-58
2023/10/04 10:26:21;;;;;;;11.52;4.97;;;;;;;11.96;100.00;100107.72;5023463;28;20471;-60
2023/10/04 10:29:29;;;;;;;10.13;3.95;;;;;;;11.98;100.00;100115.53;5018267;28;20079;-60
2023/10/04 10:32:04;;;;;;;11.23;4.95;;;;;;;11.94;100.00;100100.81;5029688;28;20135;-62
2023/10/04 10:34:40;;;;;;;12.32;5.10;;;;;;;11.98;100.00;100099.81;5018638;28;20084;-62
2023/10/04 10:37:17;;;;;;;10.77;4.68;;;;;;;11.84;100.00;100071.34;5018800;28;20049;-60
2023/10/04 10:39:52;;;;;;;19.95;5.35;;;;;;;12.14;100.00;100110.78;5028890;28;20064;-60
2023/10/04 10:42:24;;;;;;;11.50;4.72;;;;;;;12.17;100.00;100105.47;5018161;28;20091;-62
2023/10/04 10:45:28;;;;;;;13.18;5.50;;;;;;;12.21;100.00;100104.50;5019194;28;20076;-62
2023/10/04 10:48:18;;;;;;;14.18;4.82;;;;;;;11.96;100.00;100060.59;5008192;28;20056;-61
2023/10/04 10:51:38;;;;;;;12.88;4.97;;;;;;;12.26;100.00;100110.47;5018833;28;20110;-61
2023/10/04 10:54:13;;;;;;;10.23;5.10;;;;;;;11.80;100.00;100025.19;5007940;28;20041;-61
2023/10/04 10:56:49;;;;;;;14.63;4.80;;;;;;;12.26;100.00;100110.47;5017382;28;20411;-60
2023/10/04 10:59:23;;;;;;;15.90;5.30;;;;;;;12.27;100.00;100106.94;5008759;28;20056;-61
2023/10/04 11:01:59;;;;;;;13.23;4.60;;;;;;;12.28;100.00;100109.53;5018939;28;20522;-60
2023/10/04 11:04:31;;;;;;;13.52;5.22;;;;;;;12.28;100.00;100106.03;5018230;28;20079;-59
2023/10/04 11:07:03;;;;;;;13.32;5.45;;;;;;;12.26;100.00;100094.75;5028796;28;20393;-59
2023/10/04 11:09:39;;;;;;;15.45;4.78;;;;;;;12.27;100.00;100096.47;5018544;28;20391;-58
2023/10/04 11:12:21;;;;;;;12.80;4.82;;;;;;;12.25;100.00;100093.03;5018964;28;20163;-62
2023/10/04 11:14:53;;;;;;;11.50;4.18;;;;;;;12.19;100.00;100082.72;5028268;28;20063;-60
2023/10/04 11:17:23;;;;;;;12.57;4.70;;;;;;;12.29;100.00;100100.75;5018179;28;20464;-60
2023/10/04 11:19:56;;;;;;;11.27;4.60;;;;;;;12.32;100.00;100109.44;5028630;28;20056;-62
2023/10/04 11:22:30;;;;;;;11.57;4.35;;;;;;;12.28;100.00;100101.69;5017577;28;20053;-61
2023/10/04 11:25:02;;;;;;;8.90;4.07;;;;;;;12.29;100.00;100105.16;5028888;28;20053;-61
2023/10/04 11:27:32;;;;;;;12.82;4.55;;;;;;;12.27;100.00;100106.94;5018553;28;21283;-61
2023/10/04 11:30:07;;;;;;;9.32;4.10;;;;;;;12.26;100.00;100105.25;5028310;28;20048;-61
2023/10/04 11:32:47;;;;;;;9.60;3.75;;;;;;;12.23;100.00;100100.94;5017718;28;20053;-61
2023/10/04 11:35:21;;;;;;;12.85;3.88;;;;;;;12.18;100.00;100094.97;5017564;28;20401;-60
2023/10/04 11:37:54;;;;;;;9.93;3.30;;;;;;;12.27;100.00;100099.94;5028803;28;20052;-61
2023/10/04 11:40:35;;;;;;;6.95;3.50;;;;;;;12.24;100.00;100102.66;5018732;28;20049;-62
2023/10/04 11:43:12;;;;;;;9.95;3.20;;;;;;;12.17;100.00;100079.28;5021965;28;20071;-60
2023/10/04 11:46:00;;;;;;;9.20;3.17;;;;;;;12.28;100.00;100092.94;5028459;28;20063;-62
2023/10/04 11:48:40;;;;;;;7.50;3.03;;;;;;;12.23;100.00;100079.09;5017520;28;20053;-61